Time;durP1;ratioP1;P1;durP2;ratioP2;P2;SDS_P1;SDS_P2;PMS_P1;PMS_P2;Temp;Humidity;BMP_temperature;BMP_pressure;BME280_temperature;BME280_humidity;BME280_pressure;Samples;Min_cycle;Max_cycle;Signal;HPM_P1;HPM_P2
2023/07/05 00:00:34;;;;;;;11.40;6.65;;;25.80;58.20;;;;;;7642280;22;80280;-67
2023/07/05 00:03:34;;;;;;;13.90;6.68;;;25.80;58.30;;;;;;7643690;22;81144;-66
2023/07/05 00:06:35;;;;;;;14.52;7.40;;;25.80;58.30;;;;;;7641691;22;80758;-66
2023/07/05 00:09:35;;;;;;;13.60;7.03;;;25.70;58.50;;;;;;7615346;22;83303;-67
2023/07/05 00:12:36;;;;;;;14.52;6.85;;;25.70;58.70;;;;;;7642573;22;80402;-67
2023/07/05 00:15:36;;;;;;;11.02;6.78;;;25.70;58.80;;;;;;7643819;22;81171;-67
2023/07/05 00:18:37;;;;;;;9.75;6.03;;;25.70;58.80;;;;;;7641900;22;79915;-68
2023/07/05 00:21:38;;;;;;;11.63;7.05;;;25.70;59.00;;;;;;7644073;22;80613;-69
2023/07/05 00:24:38;;;;;;;12.35;6.15;;;25.70;58.80;;;;;;7640853;22;81059;-68
2023/07/05 00:27:39;;;;;;;11.45;6.35;;;25.70;58.80;;;;;;7640858;22;88209;-68
2023/07/05 00:30:39;;;;;;;13.50;6.75;;;25.80;58.80;;;;;;7616217;22;83649;-63
2023/07/05 00:33:40;;;;;;;14.88;7.53;;;25.80;58.60;;;;;;7642534;22;80509;-63
2023/07/05 00:36:40;;;;;;;10.32;6.68;;;25.80;58.80;;;;;;7641983;22;80441;-64
2023/07/05 00:39:41;;;;;;;13.57;6.55;;;25.80;58.90;;;;;;7616146;22;83397;-62
2023/07/05 00:42:42;;;;;;;13.13;6.70;;;25.80;58.80;;;;;;7642362;22;80487;-64
2023/07/05 00:45:43;;;;;;;11.52;6.85;;;25.80;58.70;;;;;;7641630;22;80380;-63
2023/07/05 00:48:44;;;;;;;10.25;6.72;;;25.70;58.60;;;;;;7615604;22;82169;-59
2023/07/05 00:51:45;;;;;;;10.48;5.90;;;25.70;58.80;;;;;;7642996;22;79900;-58
2023/07/05 00:54:46;;;;;;;9.65;6.07;;;25.70;58.90;;;;;;7615012;22;81711;-58
2023/07/05 00:57:46;;;;;;;11.57;6.63;;;25.70;59.10;;;;;;7639790;22;80376;-58
2023/07/05 01:00:47;;;;;;;11.10;6.78;;;25.70;59.10;;;;;;7640202;22;80271;-58
2023/07/05 01:03:47;;;;;;;12.32;6.97;;;25.70;59.20;;;;;;7638716;22;80262;-58
2023/07/05 01:06:48;;;;;;;13.13;6.90;;;25.70;59.20;;;;;;7639924;22;81249;-59
2023/07/05 01:09:49;;;;;;;9.98;5.97;;;25.70;59.30;;;;;;7639996;22;80656;-58
2023/07/05 01:12:50;;;;;;;12.02;6.70;;;25.70;59.40;;;;;;7639814;22;80571;-58
2023/07/05 01:15:51;;;;;;;17.90;6.78;;;25.60;59.10;;;;;;7639431;22;80435;-58
2023/07/05 01:18:51;;;;;;;14.85;5.95;;;25.60;59.00;;;;;;7641640;22;80581;-58
2023/07/05 01:21:52;;;;;;;11.20;6.57;;;25.60;59.00;;;;;;7642099;22;80182;-58
2023/07/05 05:07:41;;;;;;;9.70;6.00;;;25.60;60.70;;;;;;7637625;22;80154;-66
2023/07/05 05:10:42;;;;;;;12.15;7.00;;;25.60;60.60;;;;;;7642390;22;80672;-66
2023/07/05 05:13:42;;;;;;;15.23;6.80;;;25.60;60.60;;;;;;7614805;22;83225;-67
2023/07/05 05:16:43;;;;;;;12.95;6.95;;;25.70;60.60;;;;;;7628730;22;81154;-62
2023/07/05 05:19:43;;;;;;;15.30;6.80;;;25.70;60.40;;;;;;7634410;22;80577;-64
2023/07/05 05:22:44;;;;;;;11.48;6.68;;;25.70;60.90;;;;;;7634676;22;80357;-62
2023/07/05 05:25:44;;;;;;;12.75;7.60;;;25.70;61.10;;;;;;7639849;22;80748;-63
2023/07/05 05:28:45;;;;;;;11.38;6.47;;;25.80;61.30;;;;;;7639081;22;81556;-63
2023/07/05 05:31:45;;;;;;;12.18;6.55;;;25.80;61.10;;;;;;7614476;22;81380;-64
2023/07/05 05:34:46;;;;;;;13.38;6.13;;;25.80;61.10;;;;;;7641018;22;80436;-67
2023/07/05 05:37:46;;;;;;;17.10;6.85;;;25.80;61.40;;;;;;7641829;22;81325;-63
2023/07/05 05:40:49;;;;;;;13.68;6.93;;;25.80;61.00;;;;;;7640356;22;80617;-70
2023/07/05 05:43:50;;;;;;;12.88;6.57;;;25.80;61.20;;;;;;7643394;22;81557;-63
2023/07/05 05:46:51;;;;;;;10.07;5.90;;;25.90;61.30;;;;;;7637681;22;80182;-64
2023/07/05 05:49:51;;;;;;;14.15;6.63;;;25.90;61.00;;;;;;7638479;22;81043;-62
2023/07/05 05:52:52;;;;;;;8.65;5.97;;;25.90;60.60;;;;;;7638136;22;80249;-64
2023/07/05 05:55:52;;;;;;;12.73;6.22;;;25.90;60.50;;;;;;7634506;22;80688;-63
2023/07/05 05:58:53;;;;;;;9.13;6.28;;;25.90;60.30;;;;;;7639574;22;80464;-65
2023/07/05 06:01:53;;;;;;;12.60;6.38;;;25.90;60.40;;;;;;7583477;22;81251;-72
2023/07/05 06:04:54;;;;;;;14.63;6.50;;;25.90;60.50;;;;;;7496473;22;82237;-67
2023/07/05 06:07:54;;;;;;;11.70;7.10;;;25.90;60.60;;;;;;7611325;22;80993;-59
2023/07/05 06:10:55;;;;;;;10.27;6.13;;;25.90;60.70;;;;;;7638967;22;80935;-68
2023/07/05 06:13:56;;;;;;;9.50;6.75;;;26.00;60.70;;;;;;7641611;22;79926;-65
2023/07/05 06:16:56;;;;;;;12.27;6.97;;;25.90;60.40;;;;;;7641477;22;80344;-69
2023/07/05 06:19:57;;;;;;;18.00;6.47;;;25.90;60.40;;;;;;7640749;22;80881;-69
2023/07/05 06:22:57;;;;;;;15.32;6.55;;;25.80;60.40;;;;;;7641664;22;80336;-69
2023/07/05 06:25:58;;;;;;;11.85;6.45;;;25.80;60.30;;;;;;7640528;22;81276;-76
2023/07/05 06:28:58;;;;;;;10.82;6.88;;;25.70;59.80;;;;;;7643121;22;80964;-66
2023/07/05 06:31:59;;;;;;;13.98;6.50;;;25.80;60.40;;;;;;7642888;22;80108;-65
2023/07/05 06:34:59;;;;;;;13.80;6.95;;;25.80;60.30;;;;;;7642268;22;80484;-64
2023/07/05 06:38:00;;;;;;;15.68;6.03;;;25.90;60.30;;;;;;7642850;22;80753;-71
2023/07/05 06:41:00;;;;;;;9.45;6.15;;;26.00;60.50;;;;;;7644401;22;80243;-64
2023/07/05 06:44:01;;;;;;;14.00;7.32;;;26.00;60.60;;;;;;7642792;22;80641;-69
2023/07/05 06:47:02;;;;;;;8.35;5.38;;;26.10;61.00;;;;;;7643606;22;80619;-66
2023/07/05 06:50:02;;;;;;;11.48;6.22;;;26.00;61.20;;;;;;7642876;22;80570;-59
2023/07/05 06:53:03;;;;;;;10.73;6.18;;;26.00;61.00;;;;;;7642660;22;81013;-65
2023/07/05 06:56:03;;;;;;;13.68;6.28;;;26.00;60.90;;;;;;7641396;22;80393;-62
2023/07/05 06:59:04;;;;;;;12.27;5.93;;;26.00;60.80;;;;;;7641910;22;80902;-64
2023/07/05 07:02:04;;;;;;;10.63;6.28;;;26.10;60.80;;;;;;7640610;22;81913;-62
2023/07/05 07:05:05;;;;;;;17.75;6.70;;;26.10;60.70;;;;;;7641576;22;87640;-62
2023/07/05 07:08:05;;;;;;;11.85;6.45;;;26.10;60.60;;;;;;7640726;22;80339;-69
2023/07/05 07:11:06;;;;;;;9.68;6.30;;;26.20;60.80;;;;;;7642386;22;81495;-67
2023/07/05 07:14:06;;;;;;;13.80;5.97;;;26.20;60.40;;;;;;7634553;22;81433;-65
2023/07/05 07:17:07;;;;;;;10.23;6.30;;;26.20;60.50;;;;;;7606256;22;81643;-66
2023/07/05 07:20:07;;;;;;;82.05;42.78;;;26.20;61.20;;;;;;7643721;22;80229;-69
2023/07/05 07:23:08;;;;;;;319.75;187.48;;;26.20;61.80;;;;;;7638478;22;83113;-69
2023/07/05 07:26:08;;;;;;;163.70;92.00;;;26.30;62.30;;;;;;7635350;22;85543;-71
2023/07/05 07:29:10;;;;;;;443.98;262.08;;;26.30;62.80;;;;;;7639132;22;85302;-72
2023/07/05 07:32:10;;;;;;;481.95;286.75;;;26.30;62.80;;;;;;7630580;22;86686;-72
2023/07/05 07:35:11;;;;;;;559.65;337.20;;;26.40;62.80;;;;;;7635633;22;85147;-69
2023/07/05 07:38:11;;;;;;;401.30;225.70;;;26.40;62.80;;;;;;7636270;22;85565;-74
2023/07/05 07:41:12;;;;;;;260.42;144.75;;;26.50;62.70;;;;;;7635685;22;85723;-72
2023/07/05 07:44:13;;;;;;;150.20;82.55;;;26.50;62.70;;;;;;7610472;22;88421;-72
2023/07/05 07:47:13;;;;;;;117.70;65.07;;;26.50;62.60;;;;;;7634394;22;85292;-74
2023/07/05 07:50:14;;;;;;;92.05;50.15;;;26.50;62.60;;;;;;7640878;22;82852;-75
2023/07/05 07:53:14;;;;;;;60.17;30.55;;;26.50;62.60;;;;;;7636725;22;82964;-60
2023/07/05 07:56:15;;;;;;;50.25;27.17;;;26.50;62.70;;;;;;7638193;22;83363;-60
2023/07/05 07:59:15;;;;;;;36.20;19.88;;;26.50;62.70;;;;;;7640439;22;83700;-59
2023/07/05 08:02:16;;;;;;;40.45;21.65;;;26.60;62.80;;;;;;7634058;22;83142;-58
2023/07/05 08:05:18;;;;;;;33.65;18.88;;;26.60;63.00;;;;;;7639601;22;83753;-58
2023/07/05 08:08:18;;;;;;;27.67;15.45;;;26.60;62.70;;;;;;7638832;22;83516;-64
2023/07/05 08:11:19;;;;;;;22.90;13.82;;;26.60;62.70;;;;;;7641251;22;83782;-69
2023/07/05 08:14:20;;;;;;;17.85;9.75;;;26.60;63.00;;;;;;7640629;22;87152;-71
2023/07/05 08:17:21;;;;;;;18.23;10.23;;;26.70;62.50;;;;;;7642809;22;82238;-70
2023/07/05 08:20:22;;;;;;;21.35;9.07;;;26.70;62.40;;;;;;7636949;22;82846;-77
2023/07/05 08:23:22;;;;;;;14.63;8.50;;;26.70;61.10;;;;;;7640197;22;83524;-66
2023/07/05 08:26:23;;;;;;;17.23;8.00;;;26.70;60.40;;;;;;7615357;22;82919;-68
2023/07/05 08:29:23;;;;;;;11.77;7.28;;;26.80;59.80;;;;;;7642721;22;80882;-59
2023/07/05 08:32:24;;;;;;;13.13;6.53;;;26.80;58.50;;;;;;7642105;22;82481;-62
2023/07/05 08:35:25;;;;;;;10.50;5.78;;;26.80;58.00;;;;;;7642477;22;81531;-62
2023/07/05 08:38:25;;;;;;;9.40;5.85;;;26.80;56.60;;;;;;7641989;22;80536;-61
2023/07/05 08:41:27;;;;;;;11.98;6.25;;;26.90;56.60;;;;;;7642928;22;80893;-57
2023/07/05 08:44:27;;;;;;;10.45;6.53;;;26.90;57.70;;;;;;7642209;22;80173;-56
2023/07/05 08:47:28;;;;;;;10.63;6.03;;;27.00;60.00;;;;;;7642006;22;81123;-55
2023/07/05 08:50:30;;;;;;;16.75;6.40;;;27.10;57.20;;;;;;7613065;22;81051;-56
2023/07/05 08:53:30;;;;;;;12.18;6.03;;;27.10;55.90;;;;;;7641483;22;80049;-56
2023/07/05 08:56:31;;;;;;;8.55;5.55;;;27.10;56.80;;;;;;7642623;22;81674;-53
2023/07/05 08:59:31;;;;;;;13.75;6.00;;;27.20;57.40;;;;;;7642066;22;80361;-56
2023/07/05 09:02:32;;;;;;;15.23;6.68;;;27.20;57.90;;;;;;7642864;22;80018;-55
2023/07/05 09:05:33;;;;;;;9.88;6.55;;;27.30;58.10;;;;;;7642106;22;80231;-55
2023/07/05 09:08:34;;;;;;;12.80;6.80;;;27.30;58.30;;;;;;7641911;22;80720;-57
2023/07/05 09:11:34;;;;;;;11.30;6.85;;;27.30;58.20;;;;;;7641987;22;79909;-65
2023/07/05 09:14:40;;;;;;;10.40;6.72;;;27.40;57.80;;;;;;7643004;22;80819;-60
2023/07/05 09:17:40;;;;;;;;;;;27.40;58.10;;;;;;7643493;22;80906;-57
2023/07/05 09:20:41;;;;;;;16.33;6.95;;;27.40;58.40;;;;;;7650038;22;80130;-58
2023/07/05 09:23:41;;;;;;;15.35;7.40;;;27.40;58.50;;;;;;7640791;22;80669;-59
2023/07/05 09:26:42;;;;;;;18.30;7.43;;;27.30;58.90;;;;;;7639413;22;80881;-58
2023/07/05 09:29:42;;;;;;;11.43;7.05;;;27.30;58.90;;;;;;7639608;22;80498;-60
2023/07/05 09:32:43;;;;;;;15.05;8.30;;;27.30;58.30;;;;;;7638084;22;80403;-59
2023/07/05 09:35:44;;;;;;;12.90;7.57;;;27.30;58.40;;;;;;7637429;22;80642;-59
2023/07/05 09:38:44;;;;;;;13.55;6.45;;;27.30;58.80;;;;;;7638005;22;80565;-59
2023/07/05 09:41:46;;;;;;;14.02;7.68;;;27.20;58.60;;;;;;7638395;22;81385;-58
2023/07/05 09:44:46;;;;;;;10.25;8.00;;;27.20;59.00;;;;;;7638580;22;80232;-59
2023/07/05 09:47:47;;;;;;;15.90;8.38;;;27.20;59.00;;;;;;7638212;22;80419;-61
2023/07/05 09:50:49;;;;;;;13.75;7.78;;;27.40;58.70;;;;;;7636064;22;80663;-58
2023/07/05 09:53:50;;;;;;;14.30;7.53;;;27.40;58.70;;;;;;7637018;22;80465;-59
2023/07/05 09:56:52;;;;;;;12.85;7.20;;;27.30;58.70;;;;;;7640368;22;80882;-58
2023/07/05 09:59:52;;;;;;;11.15;7.00;;;27.30;58.80;;;;;;7642313;22;80604;-58
2023/07/05 10:02:53;;;;;;;11.20;7.15;;;27.40;58.90;;;;;;7641617;22;80509;-58
2023/07/05 10:05:53;;;;;;;11.45;7.70;;;27.40;57.70;;;;;;7640391;22;80400;-58
2023/07/05 10:08:54;;;;;;;13.57;7.70;;;27.40;56.90;;;;;;7641882;22;80217;-58
2023/07/05 10:11:56;;;;;;;14.48;8.10;;;27.40;57.00;;;;;;7639187;22;81127;-58
2023/07/05 10:14:57;;;;;;;10.32;7.25;;;27.50;57.30;;;;;;7641436;22;80251;-58
2023/07/05 10:17:57;;;;;;;12.65;6.82;;;27.40;56.70;;;;;;7635098;22;80769;-65
2023/07/05 10:20:58;;;;;;;9.15;6.30;;;27.30;57.50;;;;;;7642061;22;80346;-62
2023/07/05 10:23:59;;;;;;;11.85;6.55;;;27.40;56.70;;;;;;7640929;22;80413;-62
2023/07/05 10:26:59;;;;;;;10.80;6.85;;;27.50;56.30;;;;;;7641641;22;80220;-63
2023/07/05 10:30:00;;;;;;;11.43;6.22;;;27.50;56.50;;;;;;7642196;22;80524;-65
2023/07/05 10:33:01;;;;;;;11.90;6.22;;;27.50;56.80;;;;;;7642382;22;80704;-66
2023/07/05 10:36:04;;;;;;;15.13;6.15;;;27.50;56.30;;;;;;7642092;22;81711;-66
2023/07/05 10:39:04;;;;;;;9.45;5.65;;;27.60;55.80;;;;;;7641888;22;80533;-66
2023/07/05 10:42:05;;;;;;;10.50;6.60;;;27.60;55.90;;;;;;7641067;22;86535;-68
2023/07/05 10:45:05;;;;;;;13.90;5.28;;;27.70;55.50;;;;;;7639791;22;80214;-67
2023/07/05 10:48:06;;;;;;;7.35;5.25;;;27.70;55.10;;;;;;7640295;22;80221;-66
2023/07/05 10:51:06;;;;;;;6.20;4.85;;;27.80;54.00;;;;;;7642099;22;80784;-66
2023/07/05 10:54:07;;;;;;;8.40;5.38;;;27.80;52.70;;;;;;7641753;22;80421;-58
2023/07/05 10:57:07;;;;;;;7.97;5.13;;;27.90;52.00;;;;;;7640554;22;80446;-67
2023/07/05 11:00:11;;;;;;;6.28;4.80;;;27.90;51.10;;;;;;7640331;22;80332;-54
2023/07/05 11:03:12;;;;;;;10.40;5.50;;;27.90;50.80;;;;;;7639596;22;80657;-53
2023/07/05 11:06:12;;;;;;;11.68;4.93;;;27.80;51.60;;;;;;7641622;22;81068;-55
2023/07/05 11:09:13;;;;;;;6.43;4.65;;;28.00;51.40;;;;;;7641252;22;80617;-56
2023/07/05 11:12:15;;;;;;;39.30;18.20;;;28.10;50.20;;;;;;7642519;22;81254;-57
2023/07/05 11:15:16;;;;;;;11.93;7.93;;;28.10;51.60;;;;;;7639828;22;82723;-58
2023/07/05 11:18:16;;;;;;;10.95;6.47;;;28.10;51.20;;;;;;7642862;22;82799;-58
2023/07/05 11:21:17;;;;;;;8.20;5.05;;;28.10;51.30;;;;;;7643981;22;81293;-58
2023/07/05 11:24:17;;;;;;;9.60;5.75;;;28.10;51.60;;;;;;7639364;22;80485;-57
2023/07/05 11:27:17;;;;;;;11.50;5.55;;;28.10;52.50;;;;;;7642713;22;81491;-57
2023/07/05 11:30:18;;;;;;;9.98;5.57;;;28.20;51.90;;;;;;7641614;22;80383;-56
2023/07/05 11:33:20;;;;;;;8.07;4.85;;;28.20;53.00;;;;;;7642834;22;80649;-57
2023/07/05 11:36:20;;;;;;;9.73;5.78;;;28.30;53.10;;;;;;7642683;22;80908;-57
2023/07/05 11:39:21;;;;;;;10.80;5.07;;;28.30;53.50;;;;;;7641117;22;80492;-54
2023/07/05 11:42:24;;;;;;;9.13;4.85;;;28.30;53.90;;;;;;7641401;22;81743;-54
2023/07/05 11:45:25;;;;;;;8.88;5.35;;;28.30;54.10;;;;;;7642137;22;80493;-57
2023/07/05 11:48:25;;;;;;;6.90;4.78;;;28.30;54.10;;;;;;7641573;22;80277;-51
2023/07/05 11:51:26;;;;;;;8.57;4.32;;;28.30;53.20;;;;;;7641917;22;80592;-57
2023/07/05 11:54:26;;;;;;;13.27;4.65;;;28.30;51.00;;;;;;7640961;22;80262;-58
2023/07/05 11:57:27;;;;;;;8.15;4.78;;;28.50;51.00;;;;;;7641680;22;80269;-65
2023/07/05 12:00:27;;;;;;;6.97;4.72;;;28.40;49.20;;;;;;7642568;22;80807;-68
2023/07/05 12:03:28;;;;;;;12.38;5.07;;;28.40;50.50;;;;;;7640255;22;80080;-68
2023/07/05 12:06:28;;;;;;;7.07;4.75;;;28.30;51.20;;;;;;7642813;22;80135;-70
2023/07/05 12:09:29;;;;;;;6.60;4.18;;;28.40;49.80;;;;;;7642237;22;80154;-64
2023/07/05 12:12:30;;;;;;;7.28;4.55;;;28.50;49.00;;;;;;7640680;22;80546;-64
2023/07/05 12:15:30;;;;;;;6.35;4.90;;;28.60;49.40;;;;;;7639226;22;80587;-65
2023/07/05 12:18:31;;;;;;;10.13;4.63;;;28.70;49.70;;;;;;7638537;22;81172;-66
2023/07/05 12:21:32;;;;;;;12.68;5.32;;;28.80;49.90;;;;;;7616431;22;81732;-66
2023/07/05 12:24:33;;;;;;;10.90;5.30;;;28.80;50.10;;;;;;7656602;22;81111;-63
2023/07/05 12:27:33;;;;;;;10.13;4.95;;;28.80;50.40;;;;;;7642387;22;80390;-64
2023/07/05 12:30:34;;;;;;;9.88;5.03;;;28.80;51.10;;;;;;7641568;22;80424;-66
2023/07/05 12:33:34;;;;;;;9.93;4.35;;;28.80;49.90;;;;;;7641746;22;80542;-66
2023/07/05 12:36:35;;;;;;;6.35;4.43;;;28.80;49.00;;;;;;7642928;22;81127;-66
2023/07/05 12:39:38;;;;;;;5.68;4.30;;;28.70;48.10;;;;;;7642932;22;80354;-64
2023/07/05 12:42:39;;;;;;;8.88;5.95;;;28.70;48.40;;;;;;7641487;22;80454;-65
2023/07/05 12:45:39;;;;;;;6.97;4.53;;;28.70;48.70;;;;;;7642747;22;80428;-64
2023/07/05 12:48:41;;;;;;;9.70;5.05;;;28.70;49.00;;;;;;7641421;22;80072;-62
2023/07/05 12:51:41;;;;;;;8.52;5.32;;;28.70;49.10;;;;;;7642864;22;80284;-62
2023/07/05 12:54:42;;;;;;;8.13;5.30;;;28.60;49.70;;;;;;7635395;22;82077;-61
2023/07/05 12:57:43;;;;;;;7.47;4.35;;;28.60;49.80;;;;;;7645351;22;80630;-61
2023/07/05 13:00:44;;;;;;;10.27;5.20;;;28.60;49.30;;;;;;7643989;22;80878;-60
2023/07/05 13:03:45;;;;;;;11.98;4.97;;;28.60;49.50;;;;;;7643696;22;80117;-66
2023/07/05 13:06:45;;;;;;;10.35;5.22;;;28.60;49.60;;;;;;7645461;22;80312;-65
2023/07/05 13:09:46;;;;;;;8.00;5.65;;;28.70;49.90;;;;;;7642432;22;80343;-68
2023/07/05 13:12:47;;;;;;;7.53;4.95;;;28.70;50.40;;;;;;7643898;22;80671;-66
2023/07/05 13:15:47;;;;;;;13.77;7.45;;;28.80;51.20;;;;;;7644919;22;80886;-67
2023/07/05 13:18:48;;;;;;;9.50;5.82;;;28.80;50.70;;;;;;7644625;22;80676;-67
2023/07/05 13:21:49;;;;;;;9.32;5.70;;;28.80;49.60;;;;;;7641127;22;80935;-61
2023/07/05 13:24:49;;;;;;;12.57;5.65;;;28.80;50.40;;;;;;7644305;22;80389;-60
2023/07/05 13:27:51;;;;;;;13.82;6.07;;;28.80;50.90;;;;;;7643172;22;80549;-59
2023/07/05 13:30:52;;;;;;;10.07;4.50;;;28.80;51.50;;;;;;7643007;22;81680;-59
2023/07/05 13:33:52;;;;;;;7.32;5.00;;;28.80;48.80;;;;;;7642023;22;80467;-59
2023/07/05 13:36:53;;;;;;;9.18;5.43;;;28.90;48.90;;;;;;7639570;22;81061;-60
2023/07/05 13:39:53;;;;;;;12.15;5.22;;;28.90;49.60;;;;;;7644074;22;80617;-60
2023/07/05 13:42:54;;;;;;;10.52;5.10;;;29.00;49.30;;;;;;7642431;22;80801;-60
2023/07/05 13:45:54;;;;;;;7.30;4.75;;;29.00;49.40;;;;;;7643010;22;80208;-61
2023/07/05 13:48:56;;;;;;;22.70;6.50;;;28.90;50.10;;;;;;7641644;22;80403;-61
2023/07/05 13:51:56;;;;;;;8.75;5.45;;;28.80;51.00;;;;;;7641915;22;79952;-61
2023/07/05 13:54:57;;;;;;;10.70;6.03;;;28.90;50.80;;;;;;7641695;22;80359;-62
2023/07/05 13:57:58;;;;;;;9.63;5.57;;;28.80;50.90;;;;;;7641209;22;80676;-62
2023/07/05 14:00:59;;;;;;;9.00;5.50;;;28.80;50.70;;;;;;7640005;22;81017;-61
2023/07/05 14:04:00;;;;;;;11.60;6.18;;;28.80;49.10;;;;;;7639525;22;80603;-61
2023/07/05 14:07:00;;;;;;;16.42;5.95;;;28.80;48.80;;;;;;7639745;22;81356;-63
2023/07/05 14:10:01;;;;;;;11.32;5.90;;;28.80;49.80;;;;;;7641331;22;80711;-62
2023/07/05 14:13:01;;;;;;;7.95;5.32;;;28.80;49.00;;;;;;7642202;22;80268;-63
2023/07/05 14:16:02;;;;;;;10.80;5.85;;;28.80;49.80;;;;;;7641075;22;80886;-66
2023/07/05 14:19:03;;;;;;;8.70;5.78;;;28.80;49.70;;;;;;7640870;22;80503;-66
2023/07/05 14:22:03;;;;;;;8.55;5.38;;;28.80;50.30;;;;;;7640595;22;80384;-65
2023/07/05 14:25:04;;;;;;;11.27;5.65;;;28.80;50.30;;;;;;7640312;22;82284;-68
2023/07/05 14:28:04;;;;;;;9.70;5.38;;;28.80;51.10;;;;;;7642199;22;80477;-65
2023/07/05 14:31:05;;;;;;;27.27;6.13;;;28.60;50.30;;;;;;7641640;22;80865;-65
2023/07/05 14:34:05;;;;;;;7.50;4.60;;;28.60;48.60;;;;;;7642663;22;84088;-60
2023/07/05 14:37:06;;;;;;;9.70;4.78;;;28.70;47.50;;;;;;7641701;22;80530;-62
2023/07/05 14:40:06;;;;;;;11.63;5.20;;;28.80;46.90;;;;;;7639923;22;80287;-64
2023/07/05 14:43:07;;;;;;;12.93;5.10;;;28.80;46.40;;;;;;7641968;22;80797;-66
2023/07/05 14:46:07;;;;;;;5.82;4.10;;;28.80;47.30;;;;;;7639959;22;80870;-61
2023/07/05 14:49:08;;;;;;;7.30;4.80;;;28.80;47.20;;;;;;7634387;22;81009;-67
2023/07/05 14:52:08;;;;;;;8.93;5.65;;;28.80;48.00;;;;;;7644648;22;80546;-62
2023/07/05 14:55:09;;;;;;;11.25;6.05;;;28.80;48.70;;;;;;7644573;22;80417;-66
2023/07/05 14:58:09;;;;;;;9.15;5.32;;;28.80;48.60;;;;;;7647758;22;80767;-63
2023/07/05 15:01:10;;;;;;;9.35;5.57;;;28.70;49.40;;;;;;7645099;22;82834;-66
2023/07/05 15:04:11;;;;;;;7.75;4.78;;;28.70;49.00;;;;;;7641890;22;80347;-67
2023/07/05 15:07:11;;;;;;;9.70;5.57;;;28.80;49.10;;;;;;7644894;22;81788;-64
2023/07/05 15:10:12;;;;;;;9.35;5.63;;;28.80;48.60;;;;;;7645236;22;80603;-66
2023/07/05 15:13:12;;;;;;;10.63;4.90;;;28.80;48.90;;;;;;7646176;22;80252;-64
2023/07/05 15:16:13;;;;;;;10.50;6.07;;;28.80;48.80;;;;;;7645734;22;80610;-65
2023/07/05 15:19:14;;;;;;;9.48;5.80;;;28.80;49.20;;;;;;7641835;22;81765;-64
2023/07/05 15:22:14;;;;;;;9.40;5.70;;;28.70;49.10;;;;;;7645763;22;80301;-64
2023/07/05 15:25:15;;;;;;;7.68;5.80;;;28.70;48.70;;;;;;7646321;22;80432;-65
2023/07/05 15:28:15;;;;;;;9.70;5.72;;;28.70;48.10;;;;;;7645450;22;80801;-66
2023/07/05 15:31:18;;;;;;;14.70;6.38;;;28.70;48.60;;;;;;7645048;22;80731;-65
2023/07/05 15:34:18;;;;;;;9.07;5.63;;;28.60;49.20;;;;;;7635401;22;80332;-64
2023/07/05 15:37:19;;;;;;;10.07;5.85;;;28.60;49.40;;;;;;7642938;22;80472;-64
2023/07/05 15:40:20;;;;;;;8.23;5.75;;;28.60;49.50;;;;;;7640488;22;81437;-62
2023/07/05 15:43:21;;;;;;;9.95;6.20;;;28.60;49.50;;;;;;7640409;22;80857;-65
2023/07/05 15:46:22;;;;;;;8.68;5.28;;;28.60;49.70;;;;;;7639949;22;80445;-64
2023/07/05 15:49:23;;;;;;;9.38;5.82;;;28.60;49.90;;;;;;7644651;22;80633;-64
2023/07/05 15:52:23;;;;;;;9.07;5.97;;;28.50;50.10;;;;;;7643567;22;80696;-64
2023/07/05 15:55:24;;;;;;;10.85;6.90;;;28.50;50.40;;;;;;7643281;22;81044;-65
2023/07/05 15:58:29;;;;;;;8.93;5.93;;;28.50;50.70;;;;;;7644980;22;80339;-65
2023/07/05 16:01:31;;;;;;;7.88;6.03;;;28.40;50.70;;;;;;7639918;22;80435;-65
2023/07/05 16:04:33;;;;;;;11.77;6.28;;;28.40;51.00;;;;;;7642570;22;80789;-64
2023/07/05 16:07:34;;;;;;;10.45;6.50;;;28.40;51.00;;;;;;7645126;22;80276;-62
2023/07/05 16:10:34;;;;;;;13.45;6.00;;;28.40;50.90;;;;;;7642062;22;80530;-62
2023/07/05 16:13:35;;;;;;;14.25;6.40;;;28.30;51.10;;;;;;7642720;22;82410;-62
2023/07/05 16:16:35;;;;;;;10.13;6.30;;;28.30;51.20;;;;;;7639585;22;80493;-61
2023/07/05 16:19:36;;;;;;;10.05;6.18;;;28.30;51.20;;;;;;7643695;22;80632;-63
2023/07/05 16:22:37;;;;;;;17.55;6.18;;;28.30;51.50;;;;;;7640440;22;80324;-63
2023/07/05 16:25:37;;;;;;;18.02;5.70;;;28.10;52.90;;;;;;7640972;22;80824;-60
2023/07/05 16:28:38;;;;;;;16.70;5.55;;;28.00;54.30;;;;;;7334272;22;82857;-61
2023/07/05 16:31:39;;;;;;;15.25;5.20;;;27.90;55.70;;;;;;6869282;22;84111;-60
2023/07/05 16:34:40;;;;;;;8.63;4.90;;;27.80;58.10;;;;;;6875900;22;84601;-60
2023/07/05 16:37:42;;;;;;;23.98;4.95;;;27.70;59.40;;;;;;6843321;22;83761;-60
2023/07/05 16:40:43;;;;;;;9.82;4.57;;;27.70;59.40;;;;;;6837177;22;83624;-60
2023/07/05 16:43:44;;;;;;;10.43;5.22;;;27.60;60.70;;;;;;6834868;22;83936;-64
2023/07/05 16:46:46;;;;;;;8.27;5.20;;;27.50;61.60;;;;;;6834022;22;84271;-64
2023/07/05 16:49:49;;;;;;;11.77;5.70;;;27.50;63.40;;;;;;6847263;22;83306;-63
2023/07/05 16:52:52;;;;;;;20.15;6.20;;;27.50;64.10;;;;;;6846555;22;83361;-64
2023/07/05 16:55:54;;;;;;;11.60;5.88;;;27.40;65.10;;;;;;7475695;22;83311;-59
2023/07/05 16:58:55;;;;;;;11.35;4.95;;;27.40;65.90;;;;;;7636507;22;80342;-61
2023/07/05 17:01:55;;;;;;;12.48;5.47;;;27.30;66.00;;;;;;7642627;22;80489;-65
2023/07/05 17:04:56;;;;;;;11.15;4.82;;;27.30;65.80;;;;;;7639105;22;80282;-63
2023/07/05 17:07:56;;;;;;;14.77;5.55;;;27.20;67.40;;;;;;7642581;22;81028;-65
2023/07/05 17:10:57;;;;;;;11.52;5.65;;;27.00;69.70;;;;;;7641586;22;80034;-64
2023/07/05 17:13:58;;;;;;;12.32;5.05;;;26.90;69.50;;;;;;7642273;22;80663;-65
2023/07/05 17:16:59;;;;;;;9.02;4.90;;;26.80;70.20;;;;;;7641900;22;80526;-67
2023/07/05 17:20:00;;;;;;;13.77;5.97;;;26.80;70.40;;;;;;7641686;22;81210;-70
2023/07/05 17:23:00;;;;;;;13.65;5.50;;;26.80;71.20;;;;;;7644871;22;80549;-65
2023/07/05 17:26:01;;;;;;;11.23;5.07;;;26.80;70.30;;;;;;7643504;22;80281;-66
2023/07/05 17:29:01;;;;;;;12.68;5.30;;;26.80;70.30;;;;;;7642821;22;80415;-65
2023/07/05 17:32:02;;;;;;;9.80;4.72;;;26.80;71.50;;;;;;7642532;22;80426;-65
2023/07/05 17:35:03;;;;;;;9.68;5.15;;;26.70;71.50;;;;;;7640950;22;81246;-66
2023/07/05 17:38:03;;;;;;;13.55;5.07;;;26.70;72.90;;;;;;7640280;22;81496;-68
2023/07/05 17:41:04;;;;;;;8.15;4.20;;;26.70;72.50;;;;;;7641022;22;80906;-70
2023/07/05 17:44:04;;;;;;;10.80;4.85;;;26.70;71.40;;;;;;7642850;22;80430;-69
2023/07/05 17:47:05;;;;;;;13.10;4.47;;;26.80;71.30;;;;;;7642130;22;80793;-72
2023/07/05 17:50:05;;;;;;;15.55;4.15;;;26.80;71.20;;;;;;7642612;22;80614;-68
2023/07/05 17:53:06;;;;;;;14.38;4.78;;;26.80;69.90;;;;;;7618024;22;81647;-66
2023/07/05 17:56:08;;;;;;;8.80;4.30;;;26.80;69.50;;;;;;7629783;22;80270;-65
2023/07/05 17:59:09;;;;;;;8.82;3.80;;;26.80;69.00;;;;;;7633089;22;80476;-68
2023/07/05 18:02:09;;;;;;;10.13;4.78;;;26.80;68.30;;;;;;7637007;22;80266;-66
2023/07/05 18:05:10;;;;;;;8.90;4.47;;;26.80;68.40;;;;;;7638314;22;80354;-66
2023/07/05 18:08:11;;;;;;;8.52;4.03;;;26.90;68.40;;;;;;7639417;22;80435;-67
2023/07/05 18:11:11;;;;;;;9.80;4.50;;;26.90;68.60;;;;;;7634472;22;80480;-65
2023/07/05 18:14:12;;;;;;;12.20;4.90;;;26.90;69.80;;;;;;7638091;22;80665;-70
2023/07/05 18:17:12;;;;;;;10.82;4.55;;;26.90;69.20;;;;;;7640562;22;81244;-65
2023/07/05 18:20:14;;;;;;;9.27;4.15;;;26.90;69.00;;;;;;7637839;22;81915;-67
2023/07/05 18:23:15;;;;;;;6.65;4.20;;;26.90;69.10;;;;;;7639708;22;81491;-63
2023/07/05 18:26:15;;;;;;;9.68;4.03;;;26.80;69.40;;;;;;7643501;22;80562;-62
2023/07/05 18:29:16;;;;;;;8.02;4.53;;;26.80;69.80;;;;;;7645068;22;80283;-63
2023/07/05 18:32:17;;;;;;;7.10;3.97;;;26.80;69.60;;;;;;7643727;22;80343;-61
2023/07/05 18:35:17;;;;;;;11.07;4.82;;;26.80;69.60;;;;;;7643356;22;80276;-62
2023/07/05 18:38:19;;;;;;;11.25;4.72;;;26.70;69.20;;;;;;7642148;22;80559;-61
2023/07/05 18:41:20;;;;;;;7.53;3.97;;;26.60;69.40;;;;;;7641745;22;81915;-61
2023/07/05 18:44:20;;;;;;;6.80;4.32;;;26.60;70.40;;;;;;7642449;22;80153;-61
2023/07/05 18:47:21;;;;;;;8.25;4.22;;;26.50;71.00;;;;;;7646401;22;80297;-62
2023/07/05 18:50:21;;;;;;;10.57;4.68;;;26.50;72.20;;;;;;7643855;22;80433;-63
2023/07/05 18:53:22;;;;;;;19.02;8.48;;;26.40;72.30;;;;;;7641558;22;80239;-62
2023/07/05 18:56:24;;;;;;;18.67;10.90;;;26.40;72.30;;;;;;7646604;22;80358;-62
2023/07/05 18:59:24;;;;;;;28.73;16.33;;;26.40;72.90;;;;;;7642573;22;83228;-63
2023/07/05 19:02:25;;;;;;;30.58;16.80;;;26.40;73.40;;;;;;7640656;22;83022;-65
2023/07/05 19:05:26;;;;;;;23.85;13.27;;;26.30;72.90;;;;;;7642244;22;84177;-62
2023/07/05 19:08:27;;;;;;;21.15;11.68;;;26.30;72.80;;;;;;7632473;22;83349;-60
2023/07/05 19:11:28;;;;;;;19.25;9.60;;;26.20;73.50;;;;;;7641614;22;83579;-62